createdAt,value
2018-02-10T00:00:31.425Z,19.60
2018-02-10T00:01:31.331Z,19.10
2018-02-10T00:03:24.584Z,18.20
2018-02-10T00:04:24.505Z,19.40
2018-02-10T00:06:17.768Z,19.10
2018-02-10T00:07:17.675Z,18.40
2018-02-10T00:09:10.918Z,18.30
2018-02-10T00:10:10.845Z,19.40
2018-02-10T00:12:04.110Z,18.10
2018-02-10T00:13:04.016Z,17.90
2018-02-10T00:14:57.282Z,18.40
2018-02-10T00:15:57.191Z,18.50
2018-02-10T00:17:50.433Z,19.20
2018-02-10T00:18:50.356Z,17.40
2018-02-10T00:20:43.624Z,17.00
2018-02-10T00:21:43.531Z,17.10
2018-02-10T00:23:36.776Z,18.10
2018-02-10T00:24:36.701Z,18.80
2018-02-10T00:26:29.965Z,16.80
2018-02-10T00:27:29.873Z,17.30
2018-02-10T00:29:23.121Z,17.50
2018-02-10T00:30:23.089Z,16.90
2018-02-10T00:32:16.308Z,17.20
2018-02-10T00:33:16.215Z,17.40
2018-02-10T00:35:09.460Z,18.00
2018-02-10T00:36:09.385Z,17.00
2018-02-10T00:38:02.761Z,17.60
2018-02-10T00:39:02.555Z,17.80
2018-02-10T00:40:55.929Z,17.20
2018-02-10T00:41:55.729Z,16.90
2018-02-10T00:43:48.974Z,16.70
2018-02-10T00:44:48.897Z,16.40
2018-02-10T00:46:42.161Z,17.20
2018-02-10T00:47:42.070Z,17.60
2018-02-10T00:49:35.405Z,17.00
2018-02-10T00:50:35.331Z,16.60
2018-02-10T00:52:28.599Z,17.30
2018-02-10T00:53:28.503Z,15.70
2018-02-10T00:55:21.861Z,16.40
2018-02-10T00:56:21.670Z,15.30
2018-02-10T00:58:14.934Z,17.20
2018-02-10T00:59:14.896Z,17.40
2018-02-10T01:01:08.091Z,16.30
2018-02-10T01:02:08.017Z,16.00
2018-02-10T01:04:01.284Z,15.80
2018-02-10T01:05:01.196Z,15.50
2018-02-10T01:06:54.454Z,16.60
2018-02-10T01:07:54.358Z,16.80
2018-02-10T01:09:47.605Z,15.40
2018-02-10T01:10:47.531Z,15.60
2018-02-10T01:12:40.794Z,15.80
2018-02-10T01:13:40.702Z,15.80
2018-02-10T01:15:33.954Z,16.70
2018-02-10T01:16:33.878Z,15.30
2018-02-10T01:18:27.142Z,16.00
2018-02-10T01:19:27.055Z,16.00
2018-02-10T01:21:20.299Z,15.40
2018-02-10T01:22:20.219Z,15.50
2018-02-10T01:24:13.485Z,15.90
2018-02-10T01:25:13.391Z,15.90
2018-02-10T01:27:06.642Z,14.90
2018-02-10T01:28:06.562Z,16.00
2018-02-10T01:29:59.827Z,16.10
2018-02-10T01:30:59.737Z,16.30
2018-02-10T01:32:53.025Z,15.10
2018-02-10T01:33:52.907Z,15.30
2018-02-10T01:35:46.153Z,14.90
2018-02-10T01:36:46.077Z,15.20
2018-02-10T01:38:39.421Z,15.20
2018-02-10T01:39:39.329Z,16.00
2018-02-10T01:41:32.689Z,14.90
2018-02-10T01:42:32.498Z,14.80
2018-02-10T01:44:25.761Z,14.70
2018-02-10T01:45:25.669Z,14.00
2018-02-10T01:47:18.912Z,14.60
2018-02-10T01:48:18.835Z,15.20
2018-02-10T01:50:12.092Z,15.00
2018-02-10T01:51:11.997Z,15.10
2018-02-10T01:53:05.245Z,15.00
2018-02-10T01:54:05.167Z,14.50
2018-02-10T01:55:58.428Z,14.30
2018-02-10T01:56:58.337Z,15.10
2018-02-10T01:58:51.603Z,14.40
2018-02-10T01:59:51.509Z,14.60
2018-02-10T02:01:44.771Z,14.00
2018-02-10T02:02:44.678Z,13.90
2018-02-10T02:04:37.941Z,13.90
2018-02-10T02:05:37.847Z,13.90
2018-02-10T02:07:31.097Z,14.60
2018-02-10T02:08:31.019Z,13.90
2018-02-10T02:10:24.274Z,14.10
2018-02-10T02:11:24.180Z,13.90
2018-02-10T02:13:17.426Z,14.20
2018-02-10T02:14:17.350Z,14.40
2018-02-10T02:16:10.615Z,14.50
2018-02-10T02:17:10.521Z,14.60
2018-02-10T02:19:03.767Z,14.10
2018-02-10T02:20:03.692Z,14.20
2018-02-10T02:21:56.956Z,14.80
2018-02-10T02:22:56.861Z,14.40
2018-02-10T02:24:50.111Z,14.60
2018-02-10T02:25:50.031Z,14.60
2018-02-10T02:27:43.425Z,13.80
2018-02-10T02:28:43.330Z,13.80
2018-02-10T02:30:36.591Z,13.60
2018-02-10T02:31:36.493Z,13.70
2018-02-10T02:33:29.852Z,13.90
2018-02-10T02:34:29.669Z,13.70
2018-02-10T02:36:23.045Z,14.30
2018-02-10T02:37:22.833Z,14.40
2018-02-10T02:39:16.081Z,13.20
2018-02-10T02:40:16.006Z,13.30
2018-02-10T02:42:09.272Z,13.20
2018-02-10T02:43:09.178Z,12.90
2018-02-10T02:45:02.425Z,12.70
2018-02-10T02:46:02.348Z,13.20
2018-02-10T02:47:55.614Z,13.50
2018-02-10T02:48:55.521Z,14.20
2018-02-10T02:50:48.766Z,11.70
2018-02-10T02:51:48.692Z,12.40
2018-02-10T02:53:41.958Z,13.30
2018-02-10T02:54:41.865Z,13.60
2018-02-10T02:56:35.134Z,12.00
2018-02-10T02:57:35.034Z,12.40
2018-02-10T02:59:28.284Z,13.20
2018-02-10T03:00:28.210Z,13.10
2018-02-10T03:02:21.477Z,14.10
2018-02-10T03:03:21.381Z,13.20
2018-02-10T03:05:14.741Z,13.00
2018-02-10T03:06:14.555Z,13.40
2018-02-10T03:08:07.816Z,13.50
2018-02-10T03:09:07.721Z,13.80
2018-02-10T03:11:01.082Z,13.50
2018-02-10T03:12:00.896Z,13.20
2018-02-10T03:13:54.164Z,12.50
2018-02-10T03:14:54.069Z,12.30
2018-02-10T03:16:47.428Z,13.00
2018-02-10T03:17:47.330Z,13.40
2018-02-10T03:19:40.592Z,12.50
2018-02-10T03:20:40.503Z,12.80
2018-02-10T03:22:33.773Z,12.30
2018-02-10T03:23:33.673Z,12.30
2018-02-10T03:25:26.922Z,12.80
2018-02-10T03:26:26.845Z,12.90
2018-02-10T03:28:20.224Z,12.60
2018-02-10T03:29:20.018Z,13.30
2018-02-10T03:31:13.267Z,13.50
2018-02-10T03:32:13.192Z,14.10
2018-02-10T03:34:06.463Z,14.10
2018-02-10T03:35:06.365Z,13.50
2018-02-10T03:36:59.614Z,13.40
2018-02-10T03:37:59.538Z,13.00
2018-02-10T03:39:52.820Z,13.40
2018-02-10T03:40:52.711Z,13.40
2018-02-10T03:42:46.073Z,13.20
2018-02-10T03:43:45.884Z,13.90
2018-02-10T03:45:39.152Z,14.00
2018-02-10T03:46:39.061Z,13.30
2018-02-10T03:48:32.331Z,13.80
2018-02-10T03:49:32.233Z,13.80
2018-02-10T03:51:25.595Z,12.90
2018-02-10T03:52:25.407Z,13.20
2018-02-10T03:54:18.672Z,13.60
2018-02-10T03:55:18.579Z,14.40
2018-02-10T03:57:11.832Z,14.20
2018-02-10T03:58:11.759Z,14.20
2018-02-10T04:00:05.015Z,13.50
2018-02-10T04:01:04.924Z,13.50
2018-02-10T04:02:58.171Z,14.30
2018-02-10T04:03:58.100Z,14.50
2018-02-10T04:05:51.424Z,14.20
2018-02-10T04:06:51.330Z,14.30
2018-02-10T04:08:44.577Z,13.30
2018-02-10T04:09:44.504Z,14.60
2018-02-10T04:11:37.770Z,14.50
2018-02-10T04:12:37.676Z,14.80
2018-02-10T04:14:30.927Z,13.80
2018-02-10T04:15:30.852Z,13.90
2018-02-10T04:17:24.127Z,14.60
2018-02-10T04:18:24.027Z,14.40
2018-02-10T04:20:17.285Z,14.80
2018-02-10T04:21:17.198Z,14.80
2018-02-10T04:23:10.439Z,13.80
2018-02-10T04:24:10.364Z,14.90
2018-02-10T04:26:03.746Z,13.90
2018-02-10T04:27:03.541Z,14.00
2018-02-10T04:28:56.789Z,13.80
2018-02-10T04:29:56.713Z,15.10
2018-02-10T04:31:50.096Z,13.90
2018-02-10T04:32:49.895Z,14.10
2018-02-10T04:34:43.139Z,14.90
2018-02-10T04:35:43.066Z,16.20
2018-02-10T04:37:36.336Z,16.50
2018-02-10T04:38:36.242Z,16.00
2018-02-10T04:40:29.493Z,17.50
2018-02-10T04:41:29.418Z,16.40
2018-02-10T04:43:22.687Z,16.90
2018-02-10T04:44:22.590Z,17.40
2018-02-10T04:46:15.973Z,17.90
2018-02-10T04:47:15.781Z,17.10
2018-02-10T04:49:09.039Z,18.50
2018-02-10T04:50:08.960Z,18.80
2018-02-10T04:52:02.228Z,18.60
2018-02-10T04:53:02.135Z,18.40
2018-02-10T04:54:55.407Z,19.20
2018-02-10T04:55:55.331Z,19.10
2018-02-10T04:57:48.599Z,21.00
2018-02-10T04:58:48.507Z,21.40
2018-02-10T05:00:41.762Z,21.10
2018-02-10T05:01:41.682Z,21.40
2018-02-10T05:03:34.947Z,19.90
2018-02-10T05:04:34.854Z,20.70
2018-02-10T05:06:28.106Z,22.10
2018-02-10T05:07:28.027Z,22.40
2018-02-10T05:09:21.423Z,22.30
2018-02-10T05:10:21.330Z,23.60
2018-02-10T05:12:14.600Z,22.40
2018-02-10T05:13:14.507Z,22.10
2018-02-10T05:15:07.762Z,21.60
2018-02-10T05:16:07.680Z,22.40
2018-02-10T05:18:00.952Z,22.50
2018-02-10T05:19:00.857Z,23.90
2018-02-10T05:20:54.107Z,23.10
2018-02-10T05:21:54.039Z,23.50
2018-02-10T05:23:47.423Z,23.70
2018-02-10T05:24:47.332Z,23.70
2018-02-10T05:26:40.582Z,24.50
2018-02-10T05:27:40.508Z,23.90
2018-02-10T05:29:33.774Z,25.30
2018-02-10T05:30:33.684Z,23.70
2018-02-10T05:32:26.932Z,25.10
2018-02-10T05:33:26.858Z,24.30
2018-02-10T05:35:20.126Z,25.10
2018-02-10T05:36:20.033Z,26.60
2018-02-10T05:38:13.434Z,24.80
2018-02-10T05:39:13.333Z,25.90
2018-02-10T05:41:06.585Z,27.00
2018-02-10T05:42:06.511Z,26.90
2018-02-10T05:43:59.778Z,27.30
2018-02-10T05:44:59.704Z,26.80
2018-02-10T05:46:52.939Z,27.50
2018-02-10T05:47:52.858Z,26.70
2018-02-10T05:49:46.118Z,26.40
2018-02-10T05:50:46.030Z,25.70
2018-02-10T05:52:39.408Z,26.60
2018-02-10T05:53:39.332Z,27.00
2018-02-10T05:55:32.597Z,25.50
2018-02-10T05:56:32.504Z,25.80
2018-02-10T05:58:25.757Z,25.80
2018-02-10T05:59:25.681Z,26.20
2018-02-10T06:01:18.946Z,26.60
2018-02-10T06:02:18.853Z,27.90
2018-02-10T06:04:12.214Z,29.40
2018-02-10T06:05:12.034Z,28.10
2018-02-10T06:07:05.424Z,29.20
2018-02-10T06:08:05.331Z,27.90
2018-02-10T06:09:58.593Z,27.30
2018-02-10T06:10:58.491Z,29.00
2018-02-10T06:12:51.750Z,28.30
2018-02-10T06:13:51.670Z,27.90
2018-02-10T06:15:44.940Z,28.90
2018-02-10T06:16:44.848Z,27.10
2018-02-10T06:18:38.207Z,28.60
2018-02-10T06:19:38.023Z,29.40
2018-02-10T06:21:31.429Z,28.50
2018-02-10T06:22:31.334Z,30.60
2018-02-10T06:24:24.580Z,27.50
2018-02-10T06:25:24.507Z,29.30
2018-02-10T06:27:17.773Z,31.30
2018-02-10T06:28:17.682Z,30.20
2018-02-10T06:30:10.924Z,30.20
2018-02-10T06:31:10.845Z,29.90
2018-02-10T06:33:04.115Z,30.40
2018-02-10T06:34:04.023Z,30.20
2018-02-10T06:35:57.288Z,30.30
2018-02-10T06:36:57.194Z,30.40
2018-02-10T06:38:50.446Z,31.10
2018-02-10T06:39:50.372Z,31.00
2018-02-10T06:41:43.639Z,32.40
2018-02-10T06:42:43.545Z,32.90
2018-02-10T06:44:36.795Z,32.40
2018-02-10T06:45:36.720Z,33.00
2018-02-10T06:47:29.990Z,31.80
2018-02-10T06:48:29.896Z,32.50
2018-02-10T06:50:23.141Z,31.50
2018-02-10T06:51:23.065Z,33.00
2018-02-10T06:53:16.334Z,32.40
2018-02-10T06:54:16.240Z,33.10
2018-02-10T06:56:09.601Z,32.70
2018-02-10T06:57:09.415Z,34.40
2018-02-10T06:59:02.681Z,33.90
2018-02-10T07:00:02.591Z,34.50
2018-02-10T07:01:55.858Z,35.10
2018-02-10T07:02:55.770Z,34.80
2018-02-10T07:04:49.012Z,32.90
2018-02-10T07:05:48.940Z,32.70
2018-02-10T07:07:42.319Z,35.20
2018-02-10T07:08:42.113Z,34.10
2018-02-10T07:10:35.409Z,34.60
2018-02-10T07:11:35.335Z,35.00
2018-02-10T07:13:28.600Z,34.70
2018-02-10T07:14:28.506Z,34.80
2018-02-10T07:16:21.870Z,36.90
2018-02-10T07:17:21.682Z,36.20
2018-02-10T07:19:14.949Z,34.80
2018-02-10T07:20:14.857Z,35.80
2018-02-10T07:22:08.108Z,35.50
2018-02-10T07:23:08.034Z,36.10
2018-02-10T07:25:01.425Z,36.40
2018-02-10T07:26:01.333Z,35.80
2018-02-10T07:27:54.581Z,34.30
2018-02-10T07:28:54.506Z,34.80
2018-02-10T07:30:47.778Z,35.30
2018-02-10T07:31:47.680Z,36.50
2018-02-10T07:33:40.956Z,35.00
2018-02-10T07:34:40.858Z,34.10
2018-02-10T07:36:34.112Z,35.20
2018-02-10T07:37:34.038Z,34.50
2018-02-10T07:39:27.425Z,34.00
2018-02-10T07:40:27.332Z,34.50
2018-02-10T07:42:21.580Z,33.80
2018-02-10T07:43:21.506Z,35.30
2018-02-10T07:45:14.774Z,34.70
2018-02-10T07:46:14.680Z,34.20
2018-02-10T07:48:07.923Z,34.30
2018-02-10T07:49:07.849Z,33.90
2018-02-10T07:51:01.231Z,33.90
2018-02-10T07:52:01.021Z,33.20
2018-02-10T07:53:54.257Z,35.20
2018-02-10T07:54:54.183Z,34.90
2018-02-10T07:56:47.443Z,32.90
2018-02-10T07:57:47.345Z,34.00
2018-02-10T07:59:40.729Z,34.80
2018-02-10T08:00:40.523Z,34.40
2018-02-10T08:02:33.767Z,33.90
2018-02-10T08:03:33.690Z,34.10
2018-02-10T08:05:27.066Z,35.40
2018-02-10T08:06:26.857Z,34.00
2018-02-10T08:08:20.219Z,33.70
2018-02-10T08:09:20.032Z,34.10
2018-02-10T08:11:13.423Z,34.20
2018-02-10T08:12:13.330Z,33.20
2018-02-10T08:14:06.575Z,32.70
2018-02-10T08:15:06.499Z,33.00
2018-02-10T08:16:59.756Z,33.70
2018-02-10T08:17:59.664Z,32.70
2018-02-10T08:19:52.926Z,34.50
2018-02-10T08:20:52.827Z,35.30
2018-02-10T08:22:46.068Z,32.20
2018-02-10T08:23:45.992Z,33.00
2018-02-10T08:25:39.260Z,33.40
2018-02-10T08:26:39.169Z,32.40
2018-02-10T08:28:32.417Z,33.30
2018-02-10T08:29:32.345Z,33.90
2018-02-10T08:31:25.608Z,32.80
2018-02-10T08:32:25.509Z,32.50
2018-02-10T08:34:18.872Z,32.70
2018-02-10T08:35:18.690Z,33.00
2018-02-10T08:37:11.974Z,33.80
2018-02-10T08:38:11.852Z,32.20
2018-02-10T08:40:05.944Z,31.90
2018-02-10T08:41:05.868Z,32.10
2018-02-10T08:42:59.128Z,33.60
2018-02-10T08:43:59.034Z,32.90
2018-02-10T08:45:52.314Z,33.00
2018-02-10T08:46:52.214Z,32.40
2018-02-10T08:48:45.454Z,32.50
2018-02-10T08:49:45.381Z,31.00
2018-02-10T08:51:38.758Z,31.30
2018-02-10T08:52:38.543Z,29.70
2018-02-10T08:54:31.793Z,31.70
2018-02-10T08:55:31.721Z,31.20
2018-02-10T08:57:24.977Z,29.80
2018-02-10T08:58:24.883Z,29.00
2018-02-10T09:00:18.126Z,28.80
2018-02-10T09:01:18.054Z,29.20
2018-02-10T09:03:11.422Z,28.80
2018-02-10T09:04:11.330Z,29.50
2018-02-10T09:06:04.689Z,29.00
2018-02-10T09:07:04.498Z,28.60
2018-02-10T09:08:57.755Z,29.10
2018-02-10T09:09:57.708Z,29.10
2018-02-10T09:11:50.922Z,29.20
2018-02-10T09:12:50.827Z,29.00
2018-02-10T09:14:44.190Z,28.00
2018-02-10T09:15:43.996Z,28.60
2018-02-10T09:17:37.279Z,29.60
2018-02-10T09:18:37.186Z,29.20
2018-02-10T09:20:30.426Z,28.60
2018-02-10T09:21:30.354Z,27.50
2018-02-10T09:23:23.613Z,26.10
2018-02-10T09:24:23.520Z,27.00
2018-02-10T09:26:16.760Z,27.20
2018-02-10T09:27:16.691Z,26.10
2018-02-10T09:29:09.947Z,26.80
2018-02-10T09:30:09.860Z,26.40
2018-02-10T09:32:03.103Z,25.90
2018-02-10T09:33:03.021Z,26.30
2018-02-10T09:34:56.279Z,25.70
2018-02-10T09:35:56.188Z,25.90
2018-02-10T09:37:49.494Z,25.10
2018-02-10T09:38:49.389Z,25.80
2018-02-10T09:40:42.761Z,25.90
2018-02-10T09:41:42.587Z,25.10
2018-02-10T09:43:35.973Z,26.60
2018-02-10T09:44:35.766Z,25.90
2018-02-10T09:46:29.011Z,25.50
2018-02-10T09:47:28.933Z,24.90
2018-02-10T09:49:22.192Z,25.20
2018-02-10T09:50:22.101Z,25.10
2018-02-10T09:52:16.372Z,24.80
2018-02-10T09:53:16.268Z,25.50
2018-02-10T09:55:09.651Z,24.40
2018-02-10T09:56:09.436Z,24.30
2018-02-10T09:58:02.677Z,24.50
2018-02-10T09:59:02.632Z,25.00
2018-02-10T10:00:55.863Z,24.30
2018-02-10T10:01:55.771Z,23.30
2018-02-10T10:03:49.035Z,24.30
2018-02-10T10:04:48.937Z,25.40
2018-02-10T10:06:42.177Z,24.10
2018-02-10T10:07:42.102Z,23.40
2018-02-10T10:09:35.424Z,25.80
2018-02-10T10:10:35.331Z,24.80
2018-02-10T10:12:28.573Z,23.70
2018-02-10T10:13:28.494Z,24.70
2018-02-10T10:15:21.755Z,25.90
2018-02-10T10:16:21.664Z,25.20
2018-02-10T10:18:14.904Z,25.40
2018-02-10T10:19:14.830Z,26.40
2018-02-10T10:21:08.208Z,26.20
2018-02-10T10:22:08.010Z,25.80
2018-02-10T10:24:01.253Z,26.30
2018-02-10T10:25:01.173Z,27.30
2018-02-10T10:26:54.452Z,25.90
2018-02-10T10:27:54.352Z,26.40
2018-02-10T10:29:47.615Z,26.20
2018-02-10T10:30:47.520Z,26.20
2018-02-10T10:32:40.790Z,25.00
2018-02-10T10:33:40.699Z,25.60
2018-02-10T10:35:33.957Z,26.70
2018-02-10T10:36:33.864Z,25.80
2018-02-10T10:38:27.103Z,26.40
2018-02-10T10:39:27.025Z,26.90
2018-02-10T10:41:20.409Z,26.90
2018-02-10T10:42:20.197Z,27.10
2018-02-10T10:44:13.434Z,27.20
2018-02-10T10:45:13.361Z,27.80
2018-02-10T10:47:06.631Z,26.80
2018-02-10T10:48:06.540Z,27.30
2018-02-10T10:49:59.785Z,26.60
2018-02-10T10:50:59.711Z,27.50
2018-02-10T10:52:52.968Z,25.70
2018-02-10T10:53:52.881Z,27.70
2018-02-10T10:55:46.123Z,26.90
2018-02-10T10:56:46.043Z,28.40
2018-02-10T10:58:39.421Z,28.00
2018-02-10T10:59:39.330Z,27.00
2018-02-10T11:01:32.587Z,28.40
2018-02-10T11:02:32.495Z,28.50
2018-02-10T11:04:25.735Z,27.50
2018-02-10T11:05:25.661Z,27.60
2018-02-10T11:07:18.919Z,29.50
2018-02-10T11:08:18.826Z,30.80
2018-02-10T11:10:12.188Z,29.20
2018-02-10T11:11:11.996Z,31.50
2018-02-10T11:13:05.255Z,29.30
2018-02-10T11:14:05.162Z,28.90
2018-02-10T11:15:58.523Z,30.20
2018-02-10T11:16:58.326Z,30.70
2018-02-10T11:18:51.587Z,30.20
2018-02-10T11:19:51.492Z,31.20
2018-02-10T11:21:44.753Z,32.70
2018-02-10T11:22:44.657Z,31.20
2018-02-10T11:24:37.904Z,33.60
2018-02-10T11:25:37.827Z,33.80
2018-02-10T11:27:31.209Z,33.20
2018-02-10T11:28:30.994Z,32.30
2018-02-10T11:30:24.227Z,33.40
2018-02-10T11:31:24.148Z,32.80
2018-02-10T11:33:18.413Z,32.30
2018-02-10T11:34:18.319Z,34.40
2018-02-10T11:36:11.565Z,33.50
2018-02-10T11:37:11.489Z,33.80
2018-02-10T11:39:04.803Z,34.80
2018-02-10T11:40:04.742Z,33.70
2018-02-10T11:41:58.075Z,34.10
2018-02-10T11:42:57.876Z,32.90
2018-02-10T11:44:51.257Z,34.80
2018-02-10T11:45:51.041Z,34.50
2018-02-10T11:47:43.921Z,32.80
2018-02-10T11:48:43.714Z,32.70
2018-02-10T11:50:37.078Z,33.80
2018-02-10T11:51:36.930Z,33.40
2018-02-10T11:53:30.145Z,32.30
2018-02-10T11:54:30.049Z,34.00
2018-02-10T11:56:23.409Z,32.50
2018-02-10T11:57:23.329Z,32.10
2018-02-10T11:59:16.588Z,33.30
2018-02-10T12:00:16.502Z,32.30
2018-02-10T12:02:09.737Z,33.00
2018-02-10T12:03:09.664Z,32.20
2018-02-10T12:05:02.925Z,31.90
2018-02-10T12:06:02.830Z,33.30
2018-02-10T12:07:56.098Z,34.00
2018-02-10T12:08:55.997Z,33.00
2018-02-10T12:10:49.239Z,33.70
2018-02-10T12:11:49.166Z,32.90
2018-02-10T12:13:42.549Z,32.30
2018-02-10T12:14:42.331Z,32.40
2018-02-10T12:16:35.602Z,31.00
2018-02-10T12:17:35.529Z,30.70
2018-02-10T12:19:28.788Z,30.50
2018-02-10T12:20:28.696Z,31.60
2018-02-10T12:22:22.938Z,30.30
2018-02-10T12:23:22.859Z,28.70
2018-02-10T12:25:16.300Z,29.80
2018-02-10T12:26:16.031Z,30.00
2018-02-10T12:28:09.393Z,30.00
2018-02-10T12:29:09.200Z,31.70
2018-02-10T12:31:02.454Z,32.40
2018-02-10T12:32:02.382Z,32.50
2018-02-10T12:33:55.607Z,31.00
2018-02-10T12:34:55.532Z,31.00
2018-02-10T12:36:48.792Z,31.90
2018-02-10T12:37:48.701Z,31.70
2018-02-10T12:39:41.963Z,31.90
2018-02-10T12:40:41.870Z,31.50
2018-02-10T12:42:35.129Z,32.90
2018-02-10T12:43:35.054Z,33.10
2018-02-10T12:45:28.317Z,32.70
2018-02-10T12:46:28.223Z,32.60
2018-02-10T12:48:21.477Z,31.90
2018-02-10T12:49:21.403Z,32.70
2018-02-10T12:51:14.676Z,31.50
2018-02-10T12:52:14.585Z,32.00
2018-02-10T12:54:07.836Z,31.60
2018-02-10T12:55:07.765Z,32.40
2018-02-10T12:57:01.023Z,33.50
2018-02-10T12:58:00.938Z,32.00
2018-02-10T12:59:54.177Z,31.90
2018-02-10T13:00:54.103Z,33.70
2018-02-10T13:02:47.422Z,28.70
2018-02-10T13:03:47.333Z,30.10
2018-02-10T13:05:40.711Z,31.50
2018-02-10T13:06:40.510Z,31.80
2018-02-10T13:08:33.873Z,30.70
2018-02-10T13:09:33.675Z,30.50
2018-02-10T13:11:27.057Z,30.80
2018-02-10T13:12:26.853Z,29.80
2018-02-10T13:14:20.093Z,30.00
2018-02-10T13:15:20.020Z,31.00
2018-02-10T13:17:13.296Z,31.40
2018-02-10T13:18:13.204Z,31.80
2018-02-10T13:20:06.444Z,29.10
2018-02-10T13:21:06.371Z,29.50
2018-02-10T13:22:59.641Z,29.10
2018-02-10T13:23:59.551Z,29.90
2018-02-10T13:25:53.803Z,30.30
2018-02-10T13:26:53.729Z,31.60
2018-02-10T13:28:46.997Z,28.70
2018-02-10T13:29:46.906Z,28.10
2018-02-10T13:31:40.176Z,27.80
2018-02-10T13:32:40.084Z,28.50
2018-02-10T13:34:33.399Z,27.30
2018-02-10T13:35:33.332Z,28.50
2018-02-10T13:37:26.622Z,28.10
2018-02-10T13:38:26.529Z,27.40
2018-02-10T13:40:19.772Z,25.50
2018-02-10T13:41:19.699Z,25.90
2018-02-10T13:43:12.962Z,25.80
2018-02-10T13:44:12.869Z,25.40
2018-02-10T13:46:06.232Z,23.80
2018-02-10T13:47:06.037Z,24.80
2018-02-10T13:48:59.431Z,26.30
2018-02-10T13:49:59.335Z,24.70
2018-02-10T13:51:52.751Z,25.20
2018-02-10T13:52:52.504Z,26.60
2018-02-10T13:54:45.886Z,24.20
2018-02-10T13:55:45.682Z,24.20
2018-02-10T13:57:38.950Z,25.60
2018-02-10T13:58:38.876Z,26.10
2018-02-10T14:00:32.137Z,24.70
2018-02-10T14:01:32.054Z,24.90
2018-02-10T14:03:25.428Z,25.20
2018-02-10T14:04:25.329Z,24.30
2018-02-10T14:06:18.694Z,24.70
2018-02-10T14:07:18.509Z,24.20
2018-02-10T14:09:11.774Z,25.60
2018-02-10T14:10:11.683Z,25.40
2018-02-10T14:12:04.942Z,23.80
2018-02-10T14:13:04.866Z,24.40
2018-02-10T14:14:59.130Z,24.60
2018-02-10T14:15:59.038Z,24.90
2018-02-10T14:17:52.288Z,23.30
2018-02-10T14:18:52.216Z,23.10
2018-02-10T14:20:45.486Z,24.50
2018-02-10T14:21:45.395Z,21.90
2018-02-10T14:23:38.759Z,24.70
2018-02-10T14:24:38.575Z,24.40
2018-02-10T14:26:31.843Z,22.90
2018-02-10T14:27:31.758Z,23.40
2018-02-10T14:29:25.023Z,22.40
2018-02-10T14:30:24.933Z,23.40
2018-02-10T14:32:18.184Z,22.80
2018-02-10T14:33:18.110Z,23.20
2018-02-10T14:35:11.424Z,23.30
2018-02-10T14:36:11.330Z,23.50
2018-02-10T14:38:04.594Z,22.40
2018-02-10T14:39:04.521Z,23.20
2018-02-10T14:40:57.789Z,22.40
2018-02-10T14:41:57.697Z,21.60
2018-02-10T14:43:50.959Z,21.20
2018-02-10T14:44:50.878Z,21.40
2018-02-10T14:46:44.153Z,23.30
2018-02-10T14:47:44.056Z,20.60
2018-02-10T14:49:37.402Z,21.30
2018-02-10T14:50:37.329Z,20.30
2018-02-10T14:52:30.714Z,20.30
2018-02-10T14:53:30.505Z,21.10
2018-02-10T14:55:23.901Z,20.70
2018-02-10T14:56:23.688Z,21.50
2018-02-10T14:58:16.939Z,22.20
2018-02-10T14:59:16.867Z,22.60
2018-02-10T15:01:10.137Z,22.80
2018-02-10T15:02:10.045Z,22.90
2018-02-10T15:04:03.402Z,23.20
2018-02-10T15:05:03.332Z,23.20
2018-02-10T15:06:56.606Z,21.30
2018-02-10T15:07:56.504Z,22.90
2018-02-10T15:09:49.753Z,22.80
2018-02-10T15:10:49.682Z,22.80
2018-02-10T15:12:42.950Z,22.80
2018-02-10T15:13:42.860Z,23.50
2018-02-10T15:15:36.114Z,22.90
2018-02-10T15:16:36.041Z,22.10
2018-02-10T15:18:29.428Z,20.70
2018-02-10T15:19:29.334Z,20.70
2018-02-10T15:21:22.713Z,21.70
2018-02-10T15:22:22.509Z,21.20
2018-02-10T15:24:15.780Z,21.30
2018-02-10T15:25:15.688Z,20.20
2018-02-10T15:27:08.959Z,19.70
2018-02-10T15:28:08.868Z,20.50
2018-02-10T15:30:02.111Z,21.10
2018-02-10T15:31:02.036Z,20.20
2018-02-10T15:32:55.421Z,19.80
2018-02-10T15:33:55.329Z,19.10
2018-02-10T15:35:48.693Z,19.40
2018-02-10T15:36:48.510Z,19.50
2018-02-10T15:38:41.782Z,19.00
2018-02-10T15:39:41.690Z,18.50
2018-02-10T15:41:34.937Z,19.80
2018-02-10T15:42:34.869Z,20.00
2018-02-10T15:44:28.138Z,19.40
2018-02-10T15:45:28.051Z,20.10
2018-02-10T15:47:21.404Z,20.10
2018-02-10T15:48:21.331Z,19.40
2018-02-10T15:50:14.592Z,18.90
2018-02-10T15:51:14.503Z,21.00
2018-02-10T15:53:07.770Z,19.60
2018-02-10T15:54:07.678Z,20.20
2018-02-10T15:56:00.934Z,20.20
2018-02-10T15:57:00.858Z,21.00
2018-02-10T15:58:54.131Z,21.00
2018-02-10T15:59:54.038Z,21.70
2018-02-10T16:01:47.402Z,20.90
2018-02-10T16:02:47.330Z,22.50
2018-02-10T16:04:40.603Z,22.30
2018-02-10T16:05:40.510Z,20.90
2018-02-10T16:07:33.763Z,22.70
2018-02-10T16:08:33.690Z,22.00
2018-02-10T16:10:26.947Z,23.50
2018-02-10T16:11:26.864Z,24.30
2018-02-10T16:13:20.111Z,25.00
2018-02-10T16:14:20.041Z,24.40
2018-02-10T16:16:13.423Z,23.80
2018-02-10T16:17:13.338Z,22.20
2018-02-10T16:19:06.581Z,25.30
2018-02-10T16:20:06.510Z,25.30
2018-02-10T16:21:59.888Z,24.10
2018-02-10T16:22:59.686Z,25.00
2018-02-10T16:24:52.959Z,24.00
2018-02-10T16:25:52.869Z,24.20
2018-02-10T16:27:46.120Z,23.90
2018-02-10T16:28:46.047Z,23.30
2018-02-10T16:30:39.427Z,23.40
2018-02-10T16:31:39.335Z,22.70
2018-02-10T16:33:32.584Z,23.70
2018-02-10T16:34:32.514Z,23.50
2018-02-10T16:36:25.791Z,22.90
2018-02-10T16:37:25.690Z,23.10
2018-02-10T16:39:18.946Z,23.00
2018-02-10T16:40:18.871Z,22.60
2018-02-10T16:42:12.144Z,22.60
2018-02-10T16:43:12.053Z,23.30
2018-02-10T16:45:05.402Z,21.60
2018-02-10T16:46:05.330Z,21.60
2018-02-10T16:47:58.604Z,22.30
2018-02-10T16:48:58.510Z,22.00
2018-02-10T16:50:51.762Z,21.70
2018-02-10T16:51:51.691Z,20.70
2018-02-10T16:53:44.966Z,23.30
2018-02-10T16:54:44.879Z,22.80
2018-02-10T16:56:38.153Z,23.20
2018-02-10T16:57:38.057Z,22.40
2018-02-10T16:59:31.403Z,21.80
2018-02-10T17:00:31.329Z,21.40
2018-02-10T17:02:24.620Z,21.60
2018-02-10T17:03:24.528Z,23.90
2018-02-10T17:05:17.779Z,22.50
2018-02-10T17:06:17.707Z,22.60
2018-02-10T17:08:10.978Z,24.20
2018-02-10T17:09:10.888Z,23.60
2018-02-10T17:11:04.144Z,24.60
2018-02-10T17:12:04.070Z,25.00
2018-02-10T17:13:57.424Z,25.70
2018-02-10T17:14:57.334Z,25.50
2018-02-10T17:16:50.697Z,25.80
2018-02-10T17:17:50.512Z,26.80
2018-02-10T17:19:43.784Z,27.00
2018-02-10T17:20:43.692Z,26.70
2018-02-10T17:22:36.955Z,27.20
2018-02-10T17:23:36.881Z,28.50
2018-02-10T17:25:30.151Z,28.90
2018-02-10T17:26:30.059Z,30.80
2018-02-10T17:28:23.431Z,30.00
2018-02-10T17:29:23.331Z,30.00
2018-02-10T17:31:16.582Z,30.70
2018-02-10T17:32:16.511Z,30.40
2018-02-10T17:34:09.781Z,29.90
2018-02-10T17:35:09.690Z,30.40
2018-02-10T17:37:02.943Z,33.10
2018-02-10T17:38:02.864Z,32.70
2018-02-10T17:39:56.129Z,33.10
2018-02-10T17:40:56.054Z,31.60
2018-02-10T17:42:49.403Z,31.30
2018-02-10T17:43:49.330Z,30.10
2018-02-10T17:45:42.715Z,30.20
2018-02-10T17:46:42.512Z,31.70
2018-02-10T17:48:35.765Z,33.30
2018-02-10T17:49:35.691Z,31.30
2018-02-10T17:51:28.965Z,33.90
2018-02-10T17:52:28.874Z,32.70
2018-02-10T17:54:22.142Z,33.80
2018-02-10T17:55:22.049Z,32.80
2018-02-10T17:57:15.431Z,33.50
2018-02-10T17:58:15.341Z,33.80
2018-02-10T18:00:08.603Z,34.70
2018-02-10T18:01:08.513Z,33.80
2018-02-10T18:03:01.764Z,32.70
2018-02-10T18:04:01.690Z,33.40
2018-02-10T18:05:54.960Z,34.40
2018-02-10T18:06:54.869Z,35.30
2018-02-10T18:08:48.144Z,33.10
2018-02-10T18:09:48.048Z,33.80
2018-02-10T18:11:41.405Z,38.10
2018-02-10T18:12:41.333Z,36.50
2018-02-10T18:14:34.611Z,36.50
2018-02-10T18:15:34.521Z,37.50
2018-02-10T18:17:27.770Z,37.30
2018-02-10T18:18:27.699Z,37.20
2018-02-10T18:20:20.969Z,35.70
2018-02-10T18:21:20.879Z,37.00
2018-02-10T18:23:14.129Z,36.20
2018-02-10T18:24:14.058Z,35.80
2018-02-10T18:26:07.423Z,36.00
2018-02-10T18:27:07.331Z,34.90
2018-02-10T18:29:00.587Z,33.50
2018-02-10T18:30:00.514Z,33.30
2018-02-10T18:31:53.894Z,32.20
2018-02-10T18:32:53.736Z,33.60
2018-02-10T18:34:46.943Z,32.30